Time;durP1;ratioP1;P1;durP2;ratioP2;P2;SDS_P1;SDS_P2;PMS_P1;PMS_P2;Temp;Humidity;BMP_temperature;BMP_pressure;BME280_temperature;BME280_humidity;BME280_pressure;Samples;Min_cycle;Max_cycle;Signal;HPM_P1;HPM_P2
2022/11/24 00:00:26;;;;;;;0.40;0.30;;;5.80;99.90;;;;;;5137633;27;20447;-80
2022/11/24 00:02:54;;;;;;;0.30;0.20;;;5.80;99.90;;;;;;5136969;27;20442;-80
2022/11/24 00:05:21;;;;;;;0.40;0.30;;;5.70;99.90;;;;;;5137105;27;20459;-80
2022/11/24 00:07:48;;;;;;;0.30;0.23;;;5.70;99.90;;;;;;5136753;27;20472;-80
2022/11/24 00:10:15;;;;;;;0.37;0.33;;;5.80;99.90;;;;;;5136540;27;20890;-80
2022/11/24 00:12:42;;;;;;;0.40;0.37;;;5.80;99.90;;;;;;5136682;27;20485;-80
2022/11/24 00:15:09;;;;;;;2.10;0.37;;;5.70;99.90;;;;;;5136757;27;20474;-80
2022/11/24 00:17:36;;;;;;;0.30;0.27;;;5.70;99.90;;;;;;5136629;27;20934;-80
2022/11/24 00:20:05;;;;;;;0.30;0.20;;;5.70;99.90;;;;;;5136426;27;20478;-80
2022/11/24 00:22:32;;;;;;;6.87;0.47;;;5.70;99.90;;;;;;5136592;27;20443;-80
2022/11/24 00:24:59;;;;;;;0.30;0.30;;;5.70;99.90;;;;;;5136130;27;20463;-80
2022/11/24 00:27:25;;;;;;;0.30;0.20;;;5.70;99.90;;;;;;5136270;27;20901;-80
2022/11/24 00:29:52;;;;;;;0.30;0.30;;;5.70;99.90;;;;;;5136128;27;20438;-80
2022/11/24 00:32:19;;;;;;;0.47;0.47;;;5.70;99.90;;;;;;5136359;27;20490;-81
2022/11/24 00:34:46;;;;;;;3.43;0.57;;;5.70;99.90;;;;;;5136277;27;20459;-80
2022/11/24 00:37:14;;;;;;;0.40;0.40;;;5.70;99.90;;;;;;5136303;27;20446;-80
2022/11/24 00:39:41;;;;;;;10.80;1.13;;;5.80;99.90;;;;;;5136288;27;20450;-80
2022/11/24 00:42:08;;;;;;;0.30;0.23;;;5.80;99.90;;;;;;5136382;27;20809;-80
2022/11/24 00:44:35;;;;;;;0.30;0.30;;;5.80;99.90;;;;;;5136087;27;20470;-80
2022/11/24 00:47:01;;;;;;;0.40;0.30;;;5.80;99.90;;;;;;5136140;27;20451;-80
2022/11/24 00:49:28;;;;;;;1.07;0.30;;;5.80;99.90;;;;;;5136298;27;20443;-80
2022/11/24 00:51:55;;;;;;;0.40;0.30;;;5.80;99.90;;;;;;5135641;27;21021;-80
2022/11/24 00:54:23;;;;;;;0.30;0.20;;;5.90;99.90;;;;;;5136177;27;20462;-80
2022/11/24 00:56:50;;;;;;;0.30;0.20;;;5.90;99.90;;;;;;5136468;27;20458;-80
2022/11/24 00:59:17;;;;;;;0.30;0.20;;;5.90;99.90;;;;;;5135835;27;20441;-80
2022/11/24 01:01:43;;;;;;;0.30;0.30;;;5.90;99.90;;;;;;5135815;27;20466;-80
2022/11/24 01:04:10;;;;;;;0.30;0.20;;;5.80;99.90;;;;;;5135384;27;20981;-80
2022/11/24 01:06:37;;;;;;;0.30;0.20;;;5.90;99.90;;;;;;5135746;27;20805;-80
2022/11/24 01:09:04;;;;;;;0.30;0.30;;;5.90;99.90;;;;;;5135697;27;20446;-80
2022/11/24 01:12:00;;;;;;;0.30;0.20;;;6.00;99.90;;;;;;5135258;27;20482;-80
2022/11/24 01:14:23;;;;;;;3.17;0.80;;;5.90;99.90;;;;;;5135128;27;20550;-80
2022/11/24 01:16:50;;;;;;;0.37;0.30;;;5.90;99.90;;;;;;5135571;27;20427;-80
2022/11/24 01:19:17;;;;;;;0.30;0.20;;;5.90;99.90;;;;;;5135313;27;20474;-80
2022/11/24 01:21:44;;;;;;;0.30;0.20;;;6.00;99.90;;;;;;5135490;27;20415;-80
2022/11/24 01:24:11;;;;;;;0.30;0.20;;;6.00;99.90;;;;;;5135313;27;20470;-80
2022/11/24 01:26:39;;;;;;;0.30;0.30;;;6.00;99.90;;;;;;5135327;27;20447;-80
2022/11/24 01:29:06;;;;;;;0.33;0.30;;;6.10;99.90;;;;;;5135308;27;20438;-80
2022/11/24 01:31:32;;;;;;;0.80;0.47;;;6.00;99.90;;;;;;5134829;27;20474;-80
2022/11/24 01:33:59;;;;;;;0.30;0.20;;;6.00;99.90;;;;;;5134812;27;21018;-80
2022/11/24 01:36:26;;;;;;;0.30;0.20;;;6.00;99.90;;;;;;5134520;27;20442;-80
2022/11/24 01:38:53;;;;;;;0.40;0.30;;;6.00;99.90;;;;;;5135064;27;20447;-80
2022/11/24 01:41:22;;;;;;;0.40;0.30;;;6.00;99.90;;;;;;5135063;27;20445;-80
2022/11/24 01:43:52;;;;;;;0.30;0.20;;;6.10;99.90;;;;;;5134625;27;20462;-80
2022/11/24 01:46:24;;;;;;;5.90;0.63;;;6.10;99.90;;;;;;5135007;27;20553;-80
2022/11/24 01:48:57;;;;;;;0.30;0.30;;;6.10;99.90;;;;;;5135231;27;20427;-80
2022/11/24 01:51:26;;;;;;;0.30;0.23;;;6.10;99.90;;;;;;5134568;27;20898;-80
2022/11/24 01:53:57;;;;;;;0.30;0.30;;;6.10;99.90;;;;;;5135032;27;20474;-80
2022/11/24 01:56:24;;;;;;;0.30;0.20;;;6.10;99.90;;;;;;5134820;27;20447;-80
2022/11/24 01:58:55;;;;;;;0.30;0.30;;;6.10;99.90;;;;;;5134798;27;20446;-80
2022/11/24 02:01:22;;;;;;;0.30;0.30;;;6.10;99.90;;;;;;5134795;27;20427;-80
2022/11/24 02:03:51;;;;;;;0.30;0.20;;;6.10;99.90;;;;;;5134341;27;20470;-80
2022/11/24 02:06:22;;;;;;;0.30;0.30;;;6.10;99.90;;;;;;5134350;27;20446;-80
2022/11/24 02:08:54;;;;;;;0.50;0.50;;;6.10;99.90;;;;;;5134648;27;20442;-80
2022/11/24 02:11:24;;;;;;;0.30;0.20;;;6.10;99.90;;;;;;5134844;27;20423;-80
2022/11/24 02:13:54;;;;;;;0.30;0.30;;;6.10;99.90;;;;;;5134714;27;20471;-80
2022/11/24 02:16:20;;;;;;;0.30;0.30;;;6.10;99.90;;;;;;5135359;27;20443;-80
2022/11/24 02:18:47;;;;;;;0.30;0.20;;;6.10;99.90;;;;;;5134488;27;20447;-80
2022/11/24 02:21:16;;;;;;;0.30;0.20;;;6.10;99.90;;;;;;5134467;27;20427;-80
2022/11/24 02:23:50;;;;;;;5.80;1.47;;;6.10;99.90;;;;;;5134372;27;20451;-80
2022/11/24 02:26:29;;;;;;;0.30;0.20;;;6.10;99.90;;;;;;5134214;27;20433;-80
2022/11/24 02:28:56;;;;;;;0.30;0.20;;;6.10;99.90;;;;;;5134479;27;20796;-80
2022/11/24 02:31:23;;;;;;;0.30;0.30;;;6.10;99.90;;;;;;5134378;27;20454;-80
2022/11/24 02:33:50;;;;;;;0.50;0.30;;;6.10;99.90;;;;;;5134211;27;20486;-80
2022/11/24 02:36:17;;;;;;;0.30;0.30;;;6.10;99.90;;;;;;5134034;27;20942;-80
2022/11/24 02:38:43;;;;;;;0.30;0.20;;;6.10;99.90;;;;;;5134056;27;20910;-80
2022/11/24 02:41:13;;;;;;;0.30;0.23;;;6.10;99.90;;;;;;5134505;27;20447;-80
2022/11/24 02:43:45;;;;;;;0.30;0.20;;;6.00;99.90;;;;;;5134246;27;20459;-80
2022/11/24 02:46:12;;;;;;;0.30;0.30;;;6.00;99.90;;;;;;5134299;27;20437;-80
2022/11/24 02:48:39;;;;;;;0.30;0.30;;;6.00;99.90;;;;;;5138092;27;20438;-80
2022/11/24 02:51:06;;;;;;;0.30;0.20;;;6.00;99.90;;;;;;5138376;27;20449;-80
2022/11/24 02:53:32;;;;;;;0.30;0.30;;;6.00;99.90;;;;;;5138264;27;20489;-80
2022/11/24 02:55:59;;;;;;;0.30;0.30;;;5.90;99.90;;;;;;5138285;27;20465;-80
2022/11/24 02:58:26;;;;;;;0.30;0.20;;;5.90;99.90;;;;;;5138229;27;20450;-80
2022/11/24 03:00:56;;;;;;;0.30;0.30;;;5.90;99.90;;;;;;5138479;27;20438;-80
2022/11/24 03:03:23;;;;;;;0.30;0.30;;;5.90;99.90;;;;;;5137805;27;20439;-80
2022/11/24 03:05:49;;;;;;;0.70;0.30;;;5.80;99.90;;;;;;5138083;27;20449;-80
2022/11/24 03:08:17;;;;;;;0.30;0.30;;;5.80;99.90;;;;;;5138049;27;20446;-80
2022/11/24 03:10:43;;;;;;;0.30;0.27;;;5.80;99.90;;;;;;5137992;27;20450;-80
2022/11/24 03:13:10;;;;;;;0.30;0.30;;;5.80;99.90;;;;;;5137892;27;20478;-80
2022/11/24 03:15:37;;;;;;;0.30;0.20;;;5.90;99.90;;;;;;5137846;27;20469;-80
2022/11/24 03:18:05;;;;;;;0.30;0.30;;;5.90;99.90;;;;;;5137863;27;20454;-80
2022/11/24 03:20:32;;;;;;;0.30;0.30;;;5.90;99.90;;;;;;5137609;27;20478;-80
2022/11/24 03:22:59;;;;;;;0.37;0.27;;;5.90;99.90;;;;;;5137792;27;20441;-80
2022/11/24 03:25:26;;;;;;;0.30;0.30;;;5.90;99.90;;;;;;5137699;27;20458;-80
2022/11/24 03:27:52;;;;;;;0.40;0.30;;;5.90;99.90;;;;;;5137734;27;20469;-80
2022/11/24 03:30:19;;;;;;;0.30;0.27;;;5.90;99.90;;;;;;5137638;27;20442;-80
2022/11/24 03:32:46;;;;;;;0.30;0.20;;;5.90;99.90;;;;;;5137514;27;20509;-80
2022/11/24 03:35:14;;;;;;;0.30;0.20;;;5.90;99.90;;;;;;5137128;27;21012;-80
2022/11/24 03:37:41;;;;;;;0.37;0.30;;;5.80;99.90;;;;;;5137461;27;20456;-80
2022/11/24 03:40:09;;;;;;;0.30;0.20;;;5.80;99.90;;;;;;5137407;27;20541;-80
2022/11/24 03:42:35;;;;;;;0.30;0.23;;;5.80;99.90;;;;;;5137051;27;20453;-80
2022/11/24 03:45:02;;;;;;;0.40;0.30;;;5.80;99.90;;;;;;5137357;27;20541;-80
2022/11/24 03:47:30;;;;;;;2.00;0.40;;;5.90;99.90;;;;;;5137000;27;20991;-80
2022/11/24 03:49:56;;;;;;;0.40;0.30;;;5.90;99.90;;;;;;5137240;27;20442;-80
2022/11/24 03:52:25;;;;;;;0.30;0.30;;;6.00;99.90;;;;;;5137123;27;20474;-80
2022/11/24 03:54:52;;;;;;;0.30;0.20;;;6.00;99.90;;;;;;5137027;27;21000;-80
2022/11/24 03:57:19;;;;;;;0.30;0.20;;;6.00;99.90;;;;;;5137115;27;20449;-80
2022/11/24 03:59:45;;;;;;;0.60;0.60;;;6.00;99.90;;;;;;5136337;27;20442;-80
2022/11/24 04:02:12;;;;;;;0.30;0.30;;;6.00;99.90;;;;;;5137039;27;20525;-80
2022/11/24 04:04:39;;;;;;;0.30;0.30;;;6.00;99.90;;;;;;5136905;27;20473;-80
2022/11/24 04:07:05;;;;;;;0.50;0.50;;;6.00;99.90;;;;;;5136971;27;20804;-80
2022/11/24 04:09:34;;;;;;;0.30;0.30;;;6.00;99.90;;;;;;5136572;27;20443;-80
2022/11/24 04:14:53;;;;;;;0.30;0.20;;;6.10;99.90;;;;;;5111359;27;21117;-80
2022/11/24 04:17:20;;;;;;;4.43;0.50;;;6.10;99.90;;;;;;5136777;27;20431;-80
2022/11/24 04:19:46;;;;;;;0.30;0.23;;;6.20;99.90;;;;;;5136643;27;20485;-80
2022/11/24 04:22:13;;;;;;;0.40;0.30;;;6.20;99.90;;;;;;5136624;27;20443;-80
2022/11/24 04:24:41;;;;;;;0.30;0.20;;;6.30;99.90;;;;;;5136590;27;20802;-80
2022/11/24 04:27:08;;;;;;;0.50;0.50;;;6.30;99.90;;;;;;5136512;27;20450;-81
2022/11/24 04:29:34;;;;;;;0.30;0.30;;;6.30;99.90;;;;;;5137349;27;20452;-81
2022/11/24 04:32:01;;;;;;;0.30;0.30;;;6.40;99.90;;;;;;5136423;27;20434;-80
2022/11/24 04:34:28;;;;;;;0.50;0.30;;;6.40;99.90;;;;;;5136317;27;20467;-80
2022/11/24 04:36:55;;;;;;;0.40;0.40;;;6.40;99.90;;;;;;5136340;27;20442;-80
2022/11/24 04:39:21;;;;;;;0.30;0.30;;;6.40;99.90;;;;;;5136325;27;20450;-80
2022/11/24 04:41:49;;;;;;;0.30;0.30;;;6.30;99.90;;;;;;5136223;27;20800;-80
2022/11/24 04:44:16;;;;;;;0.40;0.40;;;6.30;99.90;;;;;;5135792;27;20470;-80
2022/11/24 04:46:43;;;;;;;11.53;0.60;;;6.20;99.90;;;;;;5136152;27;20812;-80
2022/11/24 04:49:10;;;;;;;0.57;0.43;;;6.10;99.90;;;;;;5136153;27;20451;-80
2022/11/24 04:51:37;;;;;;;0.30;0.30;;;6.10;99.90;;;;;;5136078;27;20468;-80
2022/11/24 04:54:05;;;;;;;0.30;0.20;;;6.10;99.90;;;;;;5135876;27;20510;-80
2022/11/24 04:56:32;;;;;;;0.30;0.30;;;6.00;99.90;;;;;;5136200;27;20446;-80
2022/11/24 04:59:00;;;;;;;0.43;0.43;;;6.00;99.90;;;;;;5136425;27;20466;-80
2022/11/24 05:01:27;;;;;;;0.30;0.20;;;5.90;99.90;;;;;;5135862;27;20446;-80
2022/11/24 05:03:54;;;;;;;0.40;0.30;;;5.90;99.90;;;;;;5135756;27;20828;-80
2022/11/24 05:06:21;;;;;;;0.30;0.20;;;5.90;99.90;;;;;;5135760;27;20446;-80
2022/11/24 05:08:48;;;;;;;0.30;0.20;;;5.90;99.90;;;;;;5135414;27;20926;-80
2022/11/24 05:11:15;;;;;;;0.30;0.30;;;5.80;99.90;;;;;;5134603;27;20447;-80
2022/11/24 05:13:42;;;;;;;3.93;1.17;;;5.80;99.90;;;;;;5135439;27;20483;-80
2022/11/24 05:16:10;;;;;;;0.50;0.40;;;5.80;99.90;;;;;;5135539;27;20443;-80
2022/11/24 05:18:37;;;;;;;0.30;0.20;;;5.80;99.90;;;;;;5135301;27;20447;-80
2022/11/24 05:21:05;;;;;;;0.40;0.40;;;5.80;99.90;;;;;;5135510;27;20427;-80
2022/11/24 05:23:31;;;;;;;0.30;0.30;;;5.80;99.90;;;;;;5135350;27;20446;-80
2022/11/24 05:26:00;;;;;;;0.30;0.20;;;5.80;99.90;;;;;;5135390;27;20786;-81
2022/11/24 05:28:27;;;;;;;0.97;0.70;;;5.80;99.90;;;;;;5135308;27;20504;-80
2022/11/24 05:30:53;;;;;;;0.30;0.30;;;5.90;99.90;;;;;;5135000;27;20453;-80
2022/11/24 05:33:21;;;;;;;0.30;0.20;;;5.80;99.90;;;;;;5135120;27;20482;-80
2022/11/24 05:35:49;;;;;;;0.63;0.33;;;5.80;99.90;;;;;;5135141;27;20447;-80
2022/11/24 05:38:17;;;;;;;0.50;0.37;;;5.80;99.90;;;;;;5135105;27;20547;-80
2022/11/24 05:40:44;;;;;;;1.00;0.40;;;5.70;99.90;;;;;;5134762;27;20455;-80
2022/11/24 05:43:11;;;;;;;0.30;0.20;;;5.70;99.90;;;;;;5135064;27;20846;-80
2022/11/24 05:45:38;;;;;;;0.30;0.30;;;5.70;99.90;;;;;;5134947;27;20878;-80
2022/11/24 05:48:06;;;;;;;0.30;0.30;;;5.70;99.90;;;;;;5134967;27;20499;-80
2022/11/24 05:50:35;;;;;;;0.30;0.20;;;5.60;99.90;;;;;;5135152;27;20443;-80
2022/11/24 05:53:02;;;;;;;0.30;0.20;;;5.60;99.90;;;;;;5134824;27;20493;-80
2022/11/24 05:55:29;;;;;;;0.40;0.30;;;5.60;99.90;;;;;;5134516;27;20474;-80
2022/11/24 05:57:59;;;;;;;0.30;0.30;;;5.70;99.90;;;;;;5134848;27;20447;-80
2022/11/24 06:00:26;;;;;;;0.37;0.30;;;5.70;99.90;;;;;;5134466;27;20853;-79
2022/11/24 06:02:52;;;;;;;0.30;0.30;;;5.80;99.90;;;;;;5134768;27;20439;-79
2022/11/24 06:05:19;;;;;;;0.30;0.30;;;5.80;99.90;;;;;;5134647;27;20469;-79
2022/11/24 06:07:47;;;;;;;0.30;0.30;;;5.90;99.90;;;;;;5134705;27;20439;-79
2022/11/24 06:10:15;;;;;;;5.80;0.47;;;5.90;99.90;;;;;;5134307;27;20954;-79
2022/11/24 06:12:42;;;;;;;0.30;0.30;;;6.00;99.90;;;;;;5134554;27;20462;-79
2022/11/24 06:15:10;;;;;;;0.30;0.30;;;5.90;99.90;;;;;;5134368;27;20977;-79
2022/11/24 06:17:37;;;;;;;0.30;0.30;;;6.00;99.90;;;;;;5134260;27;20450;-79
2022/11/24 06:20:05;;;;;;;0.30;0.20;;;6.00;99.90;;;;;;5134387;27;20478;-79
2022/11/24 06:22:32;;;;;;;0.30;0.20;;;6.10;99.90;;;;;;5134147;27;20445;-79
2022/11/24 06:25:00;;;;;;;0.30;0.20;;;6.10;99.90;;;;;;5134688;27;20466;-79
2022/11/24 06:27:27;;;;;;;0.97;0.97;;;6.10;99.90;;;;;;5134401;27;20446;-79
2022/11/24 06:29:54;;;;;;;0.57;0.57;;;6.20;99.90;;;;;;5134298;27;20450;-79
2022/11/24 06:32:20;;;;;;;0.30;0.30;;;6.20;99.90;;;;;;5134394;27;20442;-79
2022/11/24 06:34:47;;;;;;;0.40;0.30;;;6.20;99.90;;;;;;5134216;27;20513;-80
2022/11/24 06:37:14;;;;;;;2.70;0.50;;;6.30;99.90;;;;;;5134333;27;20474;-80
2022/11/24 06:39:41;;;;;;;0.37;0.30;;;6.30;99.90;;;;;;5134423;27;20443;-79
2022/11/24 06:42:09;;;;;;;0.40;0.40;;;6.30;99.90;;;;;;5134270;27;20482;-79
2022/11/24 06:44:36;;;;;;;1.70;0.53;;;6.30;99.90;;;;;;5134160;27;20465;-79
2022/11/24 06:47:03;;;;;;;0.30;0.20;;;6.30;99.90;;;;;;5134199;27;20512;-79
2022/11/24 06:49:29;;;;;;;0.40;0.37;;;6.30;99.90;;;;;;5134387;27;20442;-80
2022/11/24 06:51:56;;;;;;;0.30;0.30;;;6.30;99.90;;;;;;5134225;27;20453;-79
2022/11/24 06:54:23;;;;;;;0.30;0.30;;;6.40;99.90;;;;;;5133743;27;21009;-79
2022/11/24 06:56:50;;;;;;;0.30;0.20;;;6.30;99.90;;;;;;5133757;27;20533;-79
2022/11/24 06:59:20;;;;;;;1.00;0.63;;;6.40;99.90;;;;;;5134159;27;20455;-79
2022/11/24 07:01:47;;;;;;;0.40;0.40;;;6.40;99.90;;;;;;5134130;27;20427;-79
2022/11/24 07:04:14;;;;;;;0.30;0.30;;;6.40;99.90;;;;;;5134051;27;20459;-79
2022/11/24 07:06:42;;;;;;;0.30;0.30;;;6.40;99.90;;;;;;5134040;27;20469;-79
2022/11/24 07:09:09;;;;;;;0.30;0.30;;;6.40;99.90;;;;;;5134032;27;20449;-79
2022/11/24 07:11:36;;;;;;;0.30;0.20;;;6.40;99.90;;;;;;5133977;27;20451;-79
2022/11/24 07:14:03;;;;;;;0.30;0.20;;;6.40;99.90;;;;;;5133884;27;20489;-79
2022/11/24 07:16:31;;;;;;;0.30;0.20;;;6.40;99.90;;;;;;5133985;27;20480;-79
2022/11/24 07:18:58;;;;;;;0.30;0.30;;;6.40;99.90;;;;;;5133877;27;20483;-79
2022/11/24 07:21:26;;;;;;;0.30;0.30;;;6.40;99.90;;;;;;5133617;27;20453;-79
2022/11/24 07:23:54;;;;;;;0.30;0.20;;;6.40;99.90;;;;;;5134064;27;20466;-79
2022/11/24 07:26:22;;;;;;;0.30;0.20;;;6.40;99.90;;;;;;5133864;27;20457;-78
2022/11/24 07:28:49;;;;;;;0.30;0.20;;;6.40;99.90;;;;;;5133868;27;20469;-78
2022/11/24 07:31:18;;;;;;;0.30;0.20;;;6.40;99.90;;;;;;5134106;27;20454;-78
2022/11/24 07:33:49;;;;;;;0.30;0.30;;;6.40;99.90;;;;;;5134139;27;20531;-78
2022/11/24 07:36:16;;;;;;;0.30;0.30;;;6.40;99.90;;;;;;5137592;27;20480;-78
2022/11/24 07:38:42;;;;;;;0.30;0.30;;;6.40;99.90;;;;;;5137509;27;20442;-78
2022/11/24 07:41:12;;;;;;;0.30;0.20;;;6.40;99.90;;;;;;5137523;27;20438;-78
2022/11/24 07:43:39;;;;;;;0.40;0.30;;;6.40;99.90;;;;;;5137288;27;20481;-78
2022/11/24 07:46:07;;;;;;;0.30;0.30;;;6.40;99.90;;;;;;5137611;27;20439;-78
2022/11/24 07:48:34;;;;;;;0.30;0.30;;;6.40;99.90;;;;;;5137258;27;20474;-78
2022/11/24 07:51:04;;;;;;;0.30;0.20;;;6.40;99.90;;;;;;5137295;27;20449;-78
2022/11/24 07:53:31;;;;;;;0.30;0.30;;;6.40;99.90;;;;;;5137078;27;20481;-78
2022/11/24 07:56:00;;;;;;;0.40;0.30;;;6.30;99.90;;;;;;5137121;27;20443;-78
2022/11/24 07:58:28;;;;;;;0.30;0.20;;;6.30;99.90;;;;;;5136818;27;20443;-78
2022/11/24 08:00:55;;;;;;;0.30;0.30;;;6.30;99.90;;;;;;5137096;27;20476;-78
2022/11/24 08:03:22;;;;;;;0.30;0.30;;;6.30;99.90;;;;;;5136898;27;20816;-78
2022/11/24 08:05:53;;;;;;;0.40;0.37;;;6.30;99.90;;;;;;5136772;27;20443;-78
2022/11/24 08:08:22;;;;;;;0.30;0.30;;;6.30;99.90;;;;;;5136985;27;20443;-78
2022/11/24 08:10:48;;;;;;;0.53;0.50;;;6.40;99.90;;;;;;5136914;27;20447;-78
2022/11/24 08:13:15;;;;;;;0.30;0.30;;;6.40;99.90;;;;;;5136802;27;20450;-78
2022/11/24 08:15:42;;;;;;;0.30;0.20;;;6.30;99.90;;;;;;5136811;27;20825;-78
2022/11/24 08:18:10;;;;;;;0.30;0.20;;;6.20;99.90;;;;;;5136774;27;20530;-78
2022/11/24 08:20:37;;;;;;;0.30;0.20;;;6.20;99.90;;;;;;5136498;27;20474;-78
2022/11/24 08:23:04;;;;;;;0.30;0.30;;;6.20;99.90;;;;;;5137257;27;20461;-77
2022/11/24 08:25:32;;;;;;;0.33;0.27;;;6.20;99.90;;;;;;5136559;27;20458;-78
2022/11/24 08:27:59;;;;;;;0.30;0.30;;;6.20;99.90;;;;;;5136575;27;20439;-78
2022/11/24 08:30:26;;;;;;;0.30;0.30;;;6.30;99.90;;;;;;5136515;27;20520;-78
2022/11/24 08:32:52;;;;;;;0.30;0.27;;;6.30;99.90;;;;;;5136469;27;20443;-78
2022/11/24 08:35:19;;;;;;;0.30;0.20;;;6.30;99.90;;;;;;5135772;27;20489;-78
2022/11/24 08:37:46;;;;;;;0.40;0.30;;;6.40;99.90;;;;;;5136038;27;20989;-78
2022/11/24 08:40:13;;;;;;;0.30;0.30;;;6.30;99.90;;;;;;5136335;27;20447;-78
2022/11/24 08:42:41;;;;;;;0.30;0.20;;;6.40;99.90;;;;;;5135952;27;20843;-78
2022/11/24 08:45:09;;;;;;;0.30;0.20;;;6.40;99.90;;;;;;5135863;27;20459;-78
2022/11/24 08:47:35;;;;;;;0.30;0.20;;;6.30;99.90;;;;;;5136179;27;20447;-78
2022/11/24 08:50:02;;;;;;;0.30;0.20;;;6.20;99.90;;;;;;5136124;27;20447;-78
2022/11/24 08:52:29;;;;;;;0.30;0.20;;;6.20;99.90;;;;;;5136072;27;20449;-78
2022/11/24 08:54:56;;;;;;;0.30;0.20;;;6.20;99.90;;;;;;5135894;27;20518;-78
2022/11/24 08:57:23;;;;;;;0.30;0.30;;;6.30;99.90;;;;;;5135974;27;20867;-78
2022/11/24 08:59:51;;;;;;;0.30;0.30;;;6.60;99.90;;;;;;5136098;27;20458;-78
2022/11/24 09:02:18;;;;;;;0.30;0.30;;;6.80;99.90;;;;;;5136063;27;20450;-78
2022/11/24 09:04:45;;;;;;;0.47;0.30;;;7.20;99.90;;;;;;5135491;27;21177;-78
2022/11/24 09:07:11;;;;;;;0.30;0.20;;;7.40;99.90;;;;;;5135790;27;20438;-78
2022/11/24 09:09:38;;;;;;;0.33;0.30;;;7.50;99.90;;;;;;5135723;27;20446;-78
2022/11/24 09:12:05;;;;;;;0.30;0.20;;;7.50;99.90;;;;;;5135586;27;20443;-78
2022/11/24 09:14:32;;;;;;;0.60;0.60;;;7.50;99.90;;;;;;5135712;27;20486;-78
2022/11/24 09:17:00;;;;;;;0.30;0.20;;;7.70;99.90;;;;;;5135646;27;20434;-78
2022/11/24 09:19:27;;;;;;;0.30;0.20;;;8.50;99.90;;;;;;5135391;27;20478;-78
2022/11/24 09:21:54;;;;;;;0.40;0.40;;;8.90;99.90;;;;;;5135492;27;20448;-78
2022/11/24 09:24:20;;;;;;;0.30;0.30;;;8.80;99.90;;;;;;5135386;27;20463;-79
2022/11/24 09:26:47;;;;;;;0.40;0.40;;;8.90;99.90;;;;;;5135287;27;20949;-79
2022/11/24 09:29:14;;;;;;;0.30;0.20;;;9.00;99.90;;;;;;5135293;27;20447;-79
2022/11/24 09:31:41;;;;;;;0.30;0.20;;;9.10;99.90;;;;;;5135589;27;20469;-79
2022/11/24 09:34:12;;;;;;;0.30;0.20;;;8.90;99.90;;;;;;5135132;27;20508;-78
2022/11/24 09:36:39;;;;;;;0.30;0.20;;;8.70;99.90;;;;;;5135214;27;20513;-79
2022/11/24 09:39:06;;;;;;;0.30;0.20;;;8.50;99.90;;;;;;5135221;27;20816;-78
2022/11/24 09:41:43;;;;;;;0.30;0.20;;;8.30;99.90;;;;;;5134748;27;20833;-78
2022/11/24 09:44:25;;;;;;;0.30;0.20;;;8.10;99.90;;;;;;5135120;27;20470;-78
2022/11/24 09:47:02;;;;;;;0.30;0.20;;;8.20;99.90;;;;;;5135081;27;20768;-78
2022/11/24 09:49:37;;;;;;;0.30;0.20;;;8.30;99.90;;;;;;5135055;27;20441;-78
2022/11/24 09:52:09;;;;;;;0.30;0.30;;;8.30;99.90;;;;;;5135204;27;20426;-78
2022/11/24 09:54:45;;;;;;;0.40;0.30;;;8.30;99.90;;;;;;5134797;27;20494;-82
2022/11/24 09:57:13;;;;;;;0.30;0.20;;;8.20;99.90;;;;;;5134057;27;20431;-82
2022/11/24 09:59:41;;;;;;;0.40;0.40;;;8.10;99.90;;;;;;5134798;27;20458;-82
2022/11/24 10:02:11;;;;;;;0.30;0.20;;;8.10;99.90;;;;;;5135583;27;20443;-82
2022/11/24 10:04:43;;;;;;;0.30;0.20;;;8.10;99.90;;;;;;5134824;27;20459;-82
2022/11/24 10:07:18;;;;;;;0.30;0.20;;;8.00;99.90;;;;;;5134915;27;20431;-82
2022/11/24 10:09:51;;;;;;;0.30;0.20;;;7.80;99.90;;;;;;5134696;27;20430;-82
2022/11/24 10:12:30;;;;;;;0.87;0.30;;;7.70;99.90;;;;;;5134795;27;20431;-82
2022/11/24 10:15:10;;;;;;;0.30;0.20;;;7.80;99.90;;;;;;5134587;27;20481;-81
2022/11/24 10:17:58;;;;;;;0.30;0.20;;;7.80;99.90;;;;;;5134291;27;20431;-82
2022/11/24 10:20:40;;;;;;;0.30;0.20;;;7.80;99.90;;;;;;5134350;27;20482;-82
2022/11/24 10:23:21;;;;;;;0.30;0.20;;;7.80;99.90;;;;;;5134582;27;20442;-82
2022/11/24 10:25:54;;;;;;;0.30;0.20;;;7.90;99.90;;;;;;5134469;27;20419;-82
2022/11/24 10:28:20;;;;;;;0.30;0.30;;;7.80;99.90;;;;;;5134348;27;20810;-81
2022/11/24 10:30:49;;;;;;;0.33;0.27;;;7.70;99.90;;;;;;5134106;27;20443;-81
2022/11/24 10:33:19;;;;;;;0.30;0.20;;;7.70;99.90;;;;;;5134391;27;20442;-81
2022/11/24 10:35:53;;;;;;;0.30;0.20;;;7.60;99.90;;;;;;5134334;27;20474;-81
2022/11/24 10:38:35;;;;;;;0.30;0.20;;;7.70;99.90;;;;;;5135111;27;20450;-81
2022/11/24 10:41:07;;;;;;;1.70;1.60;;;8.00;99.90;;;;;;5134373;27;20456;-81
2022/11/24 10:43:34;;;;;;;0.30;0.20;;;8.00;99.90;;;;;;5134312;27;20506;-81
2022/11/24 10:46:10;;;;;;;0.30;0.27;;;8.10;99.90;;;;;;5134292;27;20446;-81
2022/11/24 10:48:41;;;;;;;0.30;0.30;;;8.20;99.90;;;;;;5134316;27;20431;-81
2022/11/24 10:51:35;;;;;;;0.30;0.20;;;8.30;99.90;;;;;;5133949;27;20803;-81
2022/11/24 10:54:07;;;;;;;0.30;0.20;;;8.10;99.90;;;;;;5134825;27;20531;-81
2022/11/24 10:56:40;;;;;;;6.73;0.43;;;8.10;99.90;;;;;;5134227;27;20434;-81
2022/11/24 10:59:22;;;;;;;0.77;0.30;;;8.10;99.90;;;;;;5134139;27;20431;-81
2022/11/24 11:01:48;;;;;;;0.40;0.30;;;8.20;99.90;;;;;;5134184;27;20439;-81
2022/11/24 11:04:19;;;;;;;0.40;0.40;;;8.20;99.90;;;;;;5134065;27;20825;-81
2022/11/24 11:06:47;;;;;;;0.30;0.20;;;8.30;99.90;;;;;;5134167;27;20431;-81
2022/11/24 11:09:19;;;;;;;0.30;0.20;;;8.40;99.90;;;;;;5135097;27;20450;-81
2022/11/24 11:11:47;;;;;;;0.30;0.20;;;8.40;99.90;;;;;;5138109;27;20454;-81
2022/11/24 11:14:29;;;;;;;0.30;0.30;;;8.40;99.90;;;;;;5137898;27;20552;-81
2022/11/24 11:16:57;;;;;;;0.30;0.30;;;8.50;99.90;;;;;;5138019;27;20572;-81
2022/11/24 11:19:36;;;;;;;2.30;0.30;;;8.50;99.90;;;;;;5138097;27;20477;-81
2022/11/24 11:22:13;;;;;;;0.30;0.30;;;8.70;99.90;;;;;;5137826;27;20431;-81
2022/11/24 11:24:42;;;;;;;0.30;0.20;;;8.80;99.90;;;;;;5137494;27;20814;-82
2022/11/24 11:27:22;;;;;;;0.30;0.30;;;8.90;99.90;;;;;;5137751;27;20471;-82
2022/11/24 11:29:49;;;;;;;0.67;0.30;;;9.10;99.90;;;;;;5137686;27;20430;-81
2022/11/24 11:32:18;;;;;;;0.33;0.27;;;9.10;99.90;;;;;;5137684;27;20524;-81
2022/11/24 11:34:46;;;;;;;0.30;0.30;;;9.10;99.90;;;;;;5137506;27;20475;-81
2022/11/24 11:37:15;;;;;;;0.30;0.30;;;9.20;99.90;;;;;;5137265;27;20961;-82
2022/11/24 11:39:45;;;;;;;0.30;0.20;;;9.30;99.90;;;;;;5137526;27;20449;-82
2022/11/24 11:42:18;;;;;;;1.70;0.83;;;9.50;99.90;;;;;;5137356;27;20446;-82
2022/11/24 11:44:49;;;;;;;0.40;0.30;;;9.50;99.90;;;;;;5137168;27;20976;-82
2022/11/24 11:47:24;;;;;;;0.30;0.20;;;9.50;99.90;;;;;;5137706;27;20434;-84
2022/11/24 11:49:51;;;;;;;0.50;0.50;;;9.50;99.90;;;;;;5137373;27;20914;-82
2022/11/24 11:52:59;;;;;;;0.30;0.20;;;9.60;99.90;;;;;;5137289;27;20864;-82
2022/11/24 11:55:37;;;;;;;0.30;0.20;;;9.90;99.90;;;;;;5128265;27;20474;-81
2022/11/24 11:58:31;;;;;;;0.40;0.30;;;10.20;99.90;;;;;;5137243;27;20480;-82
2022/11/24 12:01:05;;;;;;;0.40;0.30;;;10.40;99.90;;;;;;5137281;27;20427;-82
2022/11/24 12:03:56;;;;;;;0.30;0.20;;;10.40;99.90;;;;;;5137033;27;20438;-84
2022/11/24 12:06:38;;;;;;;0.30;0.30;;;10.40;99.90;;;;;;5137965;27;20426;-82
2022/11/24 12:09:20;;;;;;;0.40;0.30;;;10.30;99.90;;;;;;5137022;27;20449;-82
2022/11/24 12:12:23;;;;;;;0.30;0.30;;;10.20;99.90;;;;;;5137242;27;20431;-82
2022/11/24 12:15:00;;;;;;;0.30;0.27;;;10.10;99.90;;;;;;5136831;27;20478;-83
2022/11/24 12:17:34;;;;;;;0.30;0.20;;;10.10;99.90;;;;;;5136577;27;20441;-83
2022/11/24 12:20:17;;;;;;;0.30;0.20;;;10.10;99.90;;;;;;5136113;27;20473;-83
2022/11/24 12:22:51;;;;;;;0.40;0.30;;;10.10;99.90;;;;;;5137445;27;20443;-83
2022/11/24 12:25:26;;;;;;;0.30;0.20;;;10.10;99.90;;;;;;5136646;27;20462;-83
2022/11/24 12:28:02;;;;;;;0.30;0.20;;;10.00;99.90;;;;;;5136676;27;20423;-83
2022/11/24 12:30:40;;;;;;;0.30;0.20;;;9.80;99.90;;;;;;5136193;27;20924;-83
2022/11/24 12:33:25;;;;;;;1.13;0.33;;;9.80;99.90;;;;;;5136809;27;20427;-83
2022/11/24 12:35:55;;;;;;;0.30;0.30;;;9.90;99.90;;;;;;5136424;27;20463;-83
2022/11/24 12:38:33;;;;;;;0.30;0.30;;;10.00;99.90;;;;;;5136478;27;20423;-83
2022/11/24 12:41:26;;;;;;;0.30;0.30;;;10.10;99.90;;;;;;5136433;27;20790;-83
2022/11/24 12:43:56;;;;;;;0.40;0.30;;;10.10;99.90;;;;;;5136012;27;20494;-83
2022/11/24 12:46:33;;;;;;;0.30;0.30;;;10.10;99.90;;;;;;5136257;27;20930;-83
2022/11/24 12:49:10;;;;;;;0.30;0.20;;;10.10;99.90;;;;;;5136260;27;20429;-84
2022/11/24 12:51:42;;;;;;;0.40;0.30;;;10.10;99.90;;;;;;5135940;27;20901;-83
2022/11/24 12:54:13;;;;;;;0.30;0.30;;;10.10;99.90;;;;;;5135784;27;20986;-84
2022/11/24 12:56:47;;;;;;;0.30;0.30;;;10.20;99.90;;;;;;5136009;27;20470;-84
2022/11/24 12:59:33;;;;;;;0.50;0.30;;;10.00;99.90;;;;;;5135876;27;20807;-84
2022/11/24 13:02:10;;;;;;;0.30;0.30;;;9.90;99.90;;;;;;5136201;27;20439;-83
2022/11/24 13:04:46;;;;;;;0.30;0.20;;;9.70;99.90;;;;;;5136363;27;20467;-84
2022/11/24 13:07:18;;;;;;;0.30;0.27;;;9.60;99.90;;;;;;5136418;27;20427;-84
2022/11/24 13:10:18;;;;;;;0.50;0.30;;;9.50;99.90;;;;;;5136254;27;20804;-77